Owensboro, KY

2:28 AM CST on November 17, 2018 (GMT -0600)
Thoroughbred Acres | | Change Station

Elev 404 ft 37.75 °N, 87.14 °W | Updated 53 seconds ago

Clear
Clear
29.1 °F
Feels Like 29 °F
N
0
Wind Variable Wind from SSW
Gusts 0.0 mph

Today
High -- | Low -- °F
--% Chance of Precip.
Yesterday
High -- | Low -- °F
Precip. -- in
Pressure 30.24 in
Visibility 3.0 miles
Clouds Clear
Windchill 29 °F
Dew Point 29 °F
Humidity 99%
Rainfall 0.00 in
Snow Depth Not available.
6:30 AM 4:35 PM
Waxing Gibbous, 66% visible
METAR KOWB 170756Z AUTO 00000KT 3SM BR CLR M02/M02 A3019 RMK AO2 SLP238 T10171022
Pressure 30.24 in
Visibility 3.0 miles
Clouds Clear
Windchill 29 °F
Dew Point 29 °F
Humidity 99%
Rainfall 0.00 in
Snow Depth Not available.
6:30 AM 4:35 PM
Waxing Gibbous, 66% visible
METAR KOWB 170756Z AUTO 00000KT 3SM BR CLR M02/M02 A3019 RMK AO2 SLP238 T10171022

Get Severe Weather Alerts

Thanks for signing up!

Be on the lookout for a verification email in your inbox.

You'll start receiving the daily forecast at 6 AM.

×

10-Day Weather Forecast

Almanac

Astronomy

Nov. 17, 2018 Rise Set
Actual Time
Civil Twilight
Nautical Twilight
Astronomical Twilight
Moon
Length of Visible Light
Length of Day
Tomorrow will be .
, % of the Moon is Illuminated

Today's Extremes

State Highs State Lows

Community

WunderPhotos

Category 6

Welcome to Category 6. This is the collective home for Weather Underground's featured writeups by Dr. Jeff Masters (right), Bob Henson (left), Chris Burt, and other regular contributors.

Nearby

Air Quality

  Air Quality AQ Index Pollutant
Not available.

Snow Depth

Station Depth Elevation

Earthquake Activity

City Distance Mag. Time & Date
Minimum magnitude displayed is 2.5.

Coastal Water Temperatures

Place Temperature

Stations

Nearby Weather Stations

Station Location Temp. Windchill Dew Point Humidity Wind Precip. Elev Updated Type
                   

Watches & Warnings

There are currently no watches in effect.